METAR Data
IDs: Format: Raw Decoded Include TAF

Data at: 2327 UTC 26 Feb 2020

METAR for:PADQ (Kodiak Arpt, AK, US)
Text:PADQ 262253Z 30012KT 10SM OVC110 02/M02 A2945 RMK AO2 SLP974 T00171017
Temperature: 1.7°C ( 35°F)
Dewpoint: -1.7°C ( 29°F) [RH = 78%]
Pressure (altimeter):29.45 inches Hg ( 997.4 mb) [Sea level pressure: 997.4 mb]
Winds:from the WNW (300 degrees) at 14 MPH (12 knots; 6.2 m/s)
Visibility:10 or more sm (16+ km)
Ceiling:11000 feet AGL
Clouds: overcast cloud deck at 11000 feet AGL
Text:PADQ 262153Z 29012KT 10SM FEW041 02/M02 A2945 RMK AO2 SLP973 T00221017
Temperature: 2.2°C ( 36°F)
Dewpoint: -1.7°C ( 29°F) [RH = 75%]
Pressure (altimeter):29.45 inches Hg ( 997.4 mb) [Sea level pressure: 997.3 mb]
Winds:from the WNW (290 degrees) at 14 MPH (12 knots; 6.2 m/s)
Visibility:10 or more sm (16+ km)
Ceiling:at least 12,000 feet AGL
Clouds: few clouds at 4100 feet AGL
Text:PADQ 262053Z 30012KT 10SM CLR 01/M02 A2944 RMK AO2 SLP971 T00111022 53017
Temperature: 1.1°C ( 34°F)
Dewpoint: -2.2°C ( 28°F) [RH = 79%]
Pressure (altimeter):29.44 inches Hg ( 997.0 mb) [Sea level pressure: 997.1 mb]
Winds:from the WNW (300 degrees) at 14 MPH (12 knots; 6.2 m/s)
Visibility:10 or more sm (16+ km)
Ceiling:at least 12,000 feet AGL
Clouds:sky clear below 12,000 feet AGL
Text:PADQ 261953Z 30013G20KT 10SM FEW037 SCT055 02/M02 A2942 RMK AO2 SLP964 T00171017
Temperature: 1.7°C ( 35°F)
Dewpoint: -1.7°C ( 29°F) [RH = 78%]
Pressure (altimeter):29.42 inches Hg ( 996.4 mb) [Sea level pressure: 996.4 mb]
Winds:from the WNW (300 degrees) at 15 MPH (13 knots; 6.7 m/s) gusting to 23 MPH (20 knots; 10.3 m/s)
Visibility:10 or more sm (16+ km)
Ceiling:at least 12,000 feet AGL
Clouds: few clouds at 3700 feet AGL, scattered clouds at 5500 feet AGL
Text:PADQ 261853Z 29012KT 10SM SCT024 BKN038 02/M02 A2941 RMK AO2 SLP961 T00171017
Temperature: 1.7°C ( 35°F)
Dewpoint: -1.7°C ( 29°F) [RH = 78%]
Pressure (altimeter):29.41 inches Hg ( 996.0 mb) [Sea level pressure: 996.1 mb]
Winds:from the WNW (290 degrees) at 14 MPH (12 knots; 6.2 m/s)
Visibility:10 or more sm (16+ km)
Ceiling:3800 feet AGL
Clouds: scattered clouds at 2400 feet AGL, broken clouds at 3800 feet AGL
Text:PADQ 261753Z 29012KT 10SM SCT024 BKN038 01/M02 A2939 RMK AO2 SNE30 SLP954 P0000 60002 T00111017 10017 20006 51013
Temperature: 1.1°C ( 34°F)
Dewpoint: -1.7°C ( 29°F) [RH = 82%]
Pressure (altimeter):29.39 inches Hg ( 995.3 mb) [Sea level pressure: 995.4 mb]
Winds:from the WNW (290 degrees) at 14 MPH (12 knots; 6.2 m/s)
Visibility:10 or more sm (16+ km)
Ceiling:3800 feet AGL
Clouds: scattered clouds at 2400 feet AGL, broken clouds at 3800 feet AGL
Text:PADQ 261750Z 29015KT 10SM SCT024 BKN029 OVC038 01/M02 A2939 RMK AO2 SNE30 P0000
Temperature: 1.0°C ( 34°F)
Dewpoint: -2.0°C ( 28°F) [RH = 80%]
Pressure (altimeter):29.39 inches Hg ( 995.3 mb)
Winds:from the WNW (290 degrees) at 17 MPH (15 knots; 7.7 m/s)
Visibility:10 or more sm (16+ km)
Ceiling:2900 feet AGL
Clouds: scattered clouds at 2400 feet AGL, broken clouds at 2900 feet AGL, overcast cloud deck at 3800 feet AGL

TAF for:PADQ (Kodiak Arpt, AK, US) issued at 2100 UTC 26 Feb 2020
Text:PADQ 262100Z 2621/2718 31009KT P6SM VCSH SCT025 BKN040
Forecast period:2100 UTC 26 February 2020 to 1800 UTC 27 February 2020
Forecast type:FROM: standard forecast or significant change
Winds:from the NW (310 degrees) at 10 MPH (9 knots; 4.6 m/s)
Visibility:6 or more sm (10+ km)
Ceiling:4000 feet AGL
Clouds: scattered clouds at 2500 feet AGL, broken clouds at 4000 feet AGL
Weather:VCSH (showers in vicinity)